sensor_id;sensor_type;location;lat;lon;timestamp;P1;durP1;ratioP1;P2;durP2;ratioP2
2388;SDS011;1205;47.984;7.668;2023-07-20T00:01:15;2.70;;;2.50;;
2388;SDS011;1205;47.984;7.668;2023-07-20T00:03:41;3.33;;;3.10;;
2388;SDS011;1205;47.984;7.668;2023-07-20T00:06:06;3.70;;;2.93;;
2388;SDS011;1205;47.984;7.668;2023-07-20T00:08:32;6.20;;;3.00;;
2388;SDS011;1205;47.984;7.668;2023-07-20T00:10:58;3.40;;;3.00;;
2388;SDS011;1205;47.984;7.668;2023-07-20T00:13:23;8.07;;;2.97;;
2388;SDS011;1205;47.984;7.668;2023-07-20T00:15:51;3.37;;;3.13;;
2388;SDS011;1205;47.984;7.668;2023-07-20T00:18:17;2.60;;;2.50;;
2388;SDS011;1205;47.984;7.668;2023-07-20T00:20:42;5.17;;;2.90;;
2388;SDS011;1205;47.984;7.668;2023-07-20T00:23:08;6.13;;;3.43;;
2388;SDS011;1205;47.984;7.668;2023-07-20T00:25:34;3.40;;;2.70;;
2388;SDS011;1205;47.984;7.668;2023-07-20T00:28:00;4.97;;;2.80;;
2388;SDS011;1205;47.984;7.668;2023-07-20T00:30:26;12.17;;;3.20;;
2388;SDS011;1205;47.984;7.668;2023-07-20T00:32:52;3.73;;;2.87;;
2388;SDS011;1205;47.984;7.668;2023-07-20T00:35:17;12.20;;;3.20;;
2388;SDS011;1205;47.984;7.668;2023-07-20T00:37:43;3.20;;;3.00;;
2388;SDS011;1205;47.984;7.668;2023-07-20T00:40:09;7.43;;;3.00;;
2388;SDS011;1205;47.984;7.668;2023-07-20T00:42:34;5.23;;;3.83;;
2388;SDS011;1205;47.984;7.668;2023-07-20T00:45:00;3.47;;;3.17;;
2388;SDS011;1205;47.984;7.668;2023-07-20T00:47:26;5.70;;;2.70;;
2388;SDS011;1205;47.984;7.668;2023-07-20T00:49:52;4.40;;;3.17;;
2388;SDS011;1205;47.984;7.668;2023-07-20T00:52:18;6.27;;;3.20;;
2388;SDS011;1205;47.984;7.668;2023-07-20T00:54:45;4.63;;;2.60;;
2388;SDS011;1205;47.984;7.668;2023-07-20T00:57:12;3.80;;;3.07;;
2388;SDS011;1205;47.984;7.668;2023-07-20T00:59:39;5.23;;;3.00;;
2388;SDS011;1205;47.984;7.668;2023-07-20T01:02:05;4.03;;;3.30;;
2388;SDS011;1205;47.984;7.668;2023-07-20T01:04:31;3.27;;;2.80;;
2388;SDS011;1205;47.984;7.668;2023-07-20T01:07:00;3.87;;;3.47;;
2388;SDS011;1205;47.984;7.668;2023-07-20T01:10:03;3.60;;;3.30;;
2388;SDS011;1205;47.984;7.668;2023-07-20T01:12:42;3.90;;;3.27;;
2388;SDS011;1205;47.984;7.668;2023-07-20T01:15:10;3.10;;;2.90;;
2388;SDS011;1205;47.984;7.668;2023-07-20T01:17:37;3.50;;;3.20;;
2388;SDS011;1205;47.984;7.668;2023-07-20T01:20:02;5.40;;;2.70;;
2388;SDS011;1205;47.984;7.668;2023-07-20T01:25:26;3.20;;;3.00;;
2388;SDS011;1205;47.984;7.668;2023-07-20T01:31:11;4.80;;;3.70;;
2388;SDS011;1205;47.984;7.668;2023-07-20T01:33:57;5.30;;;3.10;;
2388;SDS011;1205;47.984;7.668;2023-07-20T01:36:26;8.10;;;6.73;;
2388;SDS011;1205;47.984;7.668;2023-07-20T01:38:54;25.33;;;15.50;;
2388;SDS011;1205;47.984;7.668;2023-07-20T01:41:20;34.00;;;20.07;;
2388;SDS011;1205;47.984;7.668;2023-07-20T01:43:46;88.13;;;45.17;;
2388;SDS011;1205;47.984;7.668;2023-07-20T01:46:12;129.60;;;60.40;;
2388;SDS011;1205;47.984;7.668;2023-07-20T01:48:37;60.43;;;31.43;;
2388;SDS011;1205;47.984;7.668;2023-07-20T01:51:03;124.10;;;58.90;;
2388;SDS011;1205;47.984;7.668;2023-07-20T01:53:28;100.83;;;48.70;;
2388;SDS011;1205;47.984;7.668;2023-07-20T01:55:54;142.30;;;71.93;;
2388;SDS011;1205;47.984;7.668;2023-07-20T01:58:20;89.90;;;47.93;;
2388;SDS011;1205;47.984;7.668;2023-07-20T02:00:46;69.50;;;42.60;;
2388;SDS011;1205;47.984;7.668;2023-07-20T02:03:11;40.17;;;25.17;;
2388;SDS011;1205;47.984;7.668;2023-07-20T02:05:37;13.97;;;10.17;;
2388;SDS011;1205;47.984;7.668;2023-07-20T02:08:03;9.03;;;6.47;;
2388;SDS011;1205;47.984;7.668;2023-07-20T02:10:28;4.57;;;4.17;;
2388;SDS011;1205;47.984;7.668;2023-07-20T02:12:54;5.03;;;3.60;;
2388;SDS011;1205;47.984;7.668;2023-07-20T02:15:20;4.63;;;3.67;;
2388;SDS011;1205;47.984;7.668;2023-07-20T02:17:46;5.53;;;3.33;;
2388;SDS011;1205;47.984;7.668;2023-07-20T02:20:12;6.80;;;3.53;;
2388;SDS011;1205;47.984;7.668;2023-07-20T02:22:38;2.60;;;2.40;;
2388;SDS011;1205;47.984;7.668;2023-07-20T02:25:07;6.40;;;4.00;;
2388;SDS011;1205;47.984;7.668;2023-07-20T02:27:33;15.83;;;7.70;;
2388;SDS011;1205;47.984;7.668;2023-07-20T02:29:59;10.27;;;4.70;;
2388;SDS011;1205;47.984;7.668;2023-07-20T02:32:25;15.53;;;5.10;;
2388;SDS011;1205;47.984;7.668;2023-07-20T02:34:51;6.67;;;4.10;;
2388;SDS011;1205;47.984;7.668;2023-07-20T02:37:17;3.83;;;3.50;;
2388;SDS011;1205;47.984;7.668;2023-07-20T02:39:42;4.50;;;3.07;;
2388;SDS011;1205;47.984;7.668;2023-07-20T02:42:08;2.90;;;2.60;;
2388;SDS011;1205;47.984;7.668;2023-07-20T02:44:33;8.10;;;3.30;;
2388;SDS011;1205;47.984;7.668;2023-07-20T02:46:59;4.83;;;3.10;;
2388;SDS011;1205;47.984;7.668;2023-07-20T02:49:26;3.27;;;2.80;;
2388;SDS011;1205;47.984;7.668;2023-07-20T02:51:51;6.60;;;3.37;;
2388;SDS011;1205;47.984;7.668;2023-07-20T02:54:17;8.20;;;3.60;;
2388;SDS011;1205;47.984;7.668;2023-07-20T02:56:43;4.57;;;3.30;;
2388;SDS011;1205;47.984;7.668;2023-07-20T02:59:09;3.90;;;3.20;;
2388;SDS011;1205;47.984;7.668;2023-07-20T03:01:34;5.30;;;3.10;;
2388;SDS011;1205;47.984;7.668;2023-07-20T03:04:00;2.90;;;2.80;;
2388;SDS011;1205;47.984;7.668;2023-07-20T03:06:25;4.20;;;3.37;;
2388;SDS011;1205;47.984;7.668;2023-07-20T03:08:51;5.83;;;3.03;;
2388;SDS011;1205;47.984;7.668;2023-07-20T03:11:19;5.23;;;3.37;;
2388;SDS011;1205;47.984;7.668;2023-07-20T03:13:46;3.80;;;3.40;;
2388;SDS011;1205;47.984;7.668;2023-07-20T03:16:12;3.33;;;2.90;;
2388;SDS011;1205;47.984;7.668;2023-07-20T03:18:40;6.20;;;3.23;;
2388;SDS011;1205;47.984;7.668;2023-07-20T03:21:07;3.23;;;3.03;;
2388;SDS011;1205;47.984;7.668;2023-07-20T03:23:33;3.80;;;3.10;;
2388;SDS011;1205;47.984;7.668;2023-07-20T03:25:59;10.13;;;3.27;;
2388;SDS011;1205;47.984;7.668;2023-07-20T03:28:25;7.33;;;3.00;;
2388;SDS011;1205;47.984;7.668;2023-07-20T03:30:54;3.70;;;3.20;;
2388;SDS011;1205;47.984;7.668;2023-07-20T03:33:25;3.43;;;3.13;;
2388;SDS011;1205;47.984;7.668;2023-07-20T03:35:52;5.97;;;3.63;;
2388;SDS011;1205;47.984;7.668;2023-07-20T03:38:19;3.60;;;3.30;;
2388;SDS011;1205;47.984;7.668;2023-07-20T03:40:55;3.40;;;3.20;;
2388;SDS011;1205;47.984;7.668;2023-07-20T03:43:22;4.40;;;3.20;;
2388;SDS011;1205;47.984;7.668;2023-07-20T03:45:49;4.57;;;3.60;;
2388;SDS011;1205;47.984;7.668;2023-07-20T03:48:15;4.30;;;3.60;;
2388;SDS011;1205;47.984;7.668;2023-07-20T03:50:43;8.00;;;3.40;;
2388;SDS011;1205;47.984;7.668;2023-07-20T03:53:10;5.90;;;3.43;;
2388;SDS011;1205;47.984;7.668;2023-07-20T03:55:36;3.53;;;3.23;;
2388;SDS011;1205;47.984;7.668;2023-07-20T03:58:02;3.90;;;3.60;;
2388;SDS011;1205;47.984;7.668;2023-07-20T04:00:28;6.23;;;3.60;;
2388;SDS011;1205;47.984;7.668;2023-07-20T04:02:54;5.10;;;3.57;;
2388;SDS011;1205;47.984;7.668;2023-07-20T04:05:19;5.93;;;3.20;;
2388;SDS011;1205;47.984;7.668;2023-07-20T04:07:45;4.63;;;3.80;;
2388;SDS011;1205;47.984;7.668;2023-07-20T04:10:11;4.50;;;3.57;;
2388;SDS011;1205;47.984;7.668;2023-07-20T04:12:37;4.37;;;3.77;;
2388;SDS011;1205;47.984;7.668;2023-07-20T04:15:03;4.33;;;3.43;;
2388;SDS011;1205;47.984;7.668;2023-07-20T04:17:29;11.97;;;4.17;;
2388;SDS011;1205;47.984;7.668;2023-07-20T04:19:55;6.70;;;3.50;;
2388;SDS011;1205;47.984;7.668;2023-07-20T04:22:20;3.70;;;3.13;;
2388;SDS011;1205;47.984;7.668;2023-07-20T04:24:46;3.80;;;3.50;;
2388;SDS011;1205;47.984;7.668;2023-07-20T04:27:12;6.57;;;3.30;;
2388;SDS011;1205;47.984;7.668;2023-07-20T04:29:37;5.23;;;3.57;;
2388;SDS011;1205;47.984;7.668;2023-07-20T04:32:03;4.23;;;3.57;;
2388;SDS011;1205;47.984;7.668;2023-07-20T04:34:29;6.10;;;3.27;;
2388;SDS011;1205;47.984;7.668;2023-07-20T04:36:54;8.67;;;3.40;;
2388;SDS011;1205;47.984;7.668;2023-07-20T04:39:20;4.90;;;3.53;;
2388;SDS011;1205;47.984;7.668;2023-07-20T04:41:45;4.13;;;3.83;;
2388;SDS011;1205;47.984;7.668;2023-07-20T04:44:12;6.00;;;3.40;;
2388;SDS011;1205;47.984;7.668;2023-07-20T04:46:38;10.00;;;3.50;;
2388;SDS011;1205;47.984;7.668;2023-07-20T04:49:05;5.90;;;3.50;;
2388;SDS011;1205;47.984;7.668;2023-07-20T04:51:30;5.47;;;3.33;;
2388;SDS011;1205;47.984;7.668;2023-07-20T04:53:56;5.20;;;3.90;;
2388;SDS011;1205;47.984;7.668;2023-07-20T04:56:22;3.30;;;2.80;;
2388;SDS011;1205;47.984;7.668;2023-07-20T04:58:48;10.10;;;3.60;;
2388;SDS011;1205;47.984;7.668;2023-07-20T05:01:14;5.40;;;3.80;;
2388;SDS011;1205;47.984;7.668;2023-07-20T05:03:39;11.63;;;4.33;;
2388;SDS011;1205;47.984;7.668;2023-07-20T05:06:05;5.70;;;3.90;;
2388;SDS011;1205;47.984;7.668;2023-07-20T05:08:30;4.20;;;3.30;;
2388;SDS011;1205;47.984;7.668;2023-07-20T05:10:56;6.13;;;3.80;;
2388;SDS011;1205;47.984;7.668;2023-07-20T05:13:22;10.60;;;3.73;;
2388;SDS011;1205;47.984;7.668;2023-07-20T05:15:51;8.00;;;3.60;;
2388;SDS011;1205;47.984;7.668;2023-07-20T05:18:17;3.40;;;3.10;;
2388;SDS011;1205;47.984;7.668;2023-07-20T05:20:45;9.23;;;3.67;;
2388;SDS011;1205;47.984;7.668;2023-07-20T05:23:11;4.00;;;3.40;;
2388;SDS011;1205;47.984;7.668;2023-07-20T05:25:37;6.33;;;4.20;;
2388;SDS011;1205;47.984;7.668;2023-07-20T05:28:03;9.83;;;3.40;;
2388;SDS011;1205;47.984;7.668;2023-07-20T05:30:28;3.80;;;2.80;;
2388;SDS011;1205;47.984;7.668;2023-07-20T05:32:54;5.90;;;3.60;;
2388;SDS011;1205;47.984;7.668;2023-07-20T05:35:20;7.63;;;3.57;;
2388;SDS011;1205;47.984;7.668;2023-07-20T05:37:45;6.23;;;3.40;;
2388;SDS011;1205;47.984;7.668;2023-07-20T05:40:11;7.33;;;4.13;;
2388;SDS011;1205;47.984;7.668;2023-07-20T05:42:38;5.50;;;3.37;;
2388;SDS011;1205;47.984;7.668;2023-07-20T05:45:04;3.17;;;2.87;;
2388;SDS011;1205;47.984;7.668;2023-07-20T05:47:30;4.07;;;3.70;;
2388;SDS011;1205;47.984;7.668;2023-07-20T05:49:57;5.00;;;3.20;;
2388;SDS011;1205;47.984;7.668;2023-07-20T05:52:22;4.47;;;3.30;;
2388;SDS011;1205;47.984;7.668;2023-07-20T05:54:48;4.00;;;2.97;;
2388;SDS011;1205;47.984;7.668;2023-07-20T05:57:13;7.60;;;3.63;;
2388;SDS011;1205;47.984;7.668;2023-07-20T05:59:39;4.67;;;3.93;;
2388;SDS011;1205;47.984;7.668;2023-07-20T06:02:09;4.80;;;3.77;;
2388;SDS011;1205;47.984;7.668;2023-07-20T06:04:34;2.90;;;2.70;;
2388;SDS011;1205;47.984;7.668;2023-07-20T06:07:00;3.37;;;2.77;;
2388;SDS011;1205;47.984;7.668;2023-07-20T06:09:26;9.70;;;3.93;;
2388;SDS011;1205;47.984;7.668;2023-07-20T06:11:52;5.13;;;3.77;;
2388;SDS011;1205;47.984;7.668;2023-07-20T06:14:18;4.33;;;3.20;;
2388;SDS011;1205;47.984;7.668;2023-07-20T06:16:43;5.80;;;3.57;;
2388;SDS011;1205;47.984;7.668;2023-07-20T06:19:09;4.60;;;3.20;;
2388;SDS011;1205;47.984;7.668;2023-07-20T06:21:37;4.13;;;2.67;;
2388;SDS011;1205;47.984;7.668;2023-07-20T06:24:03;4.73;;;3.17;;
2388;SDS011;1205;47.984;7.668;2023-07-20T06:26:29;7.07;;;4.00;;
2388;SDS011;1205;47.984;7.668;2023-07-20T06:28:55;3.23;;;2.93;;
2388;SDS011;1205;47.984;7.668;2023-07-20T06:31:21;4.90;;;3.43;;
2388;SDS011;1205;47.984;7.668;2023-07-20T06:33:46;7.47;;;3.60;;
2388;SDS011;1205;47.984;7.668;2023-07-20T06:36:12;5.33;;;3.23;;
2388;SDS011;1205;47.984;7.668;2023-07-20T06:38:38;5.33;;;3.50;;
2388;SDS011;1205;47.984;7.668;2023-07-20T06:41:03;6.20;;;3.20;;
2388;SDS011;1205;47.984;7.668;2023-07-20T06:43:29;3.50;;;3.20;;
2388;SDS011;1205;47.984;7.668;2023-07-20T06:45:54;4.07;;;3.50;;
2388;SDS011;1205;47.984;7.668;2023-07-20T06:48:21;3.30;;;3.10;;
2388;SDS011;1205;47.984;7.668;2023-07-20T06:50:47;3.40;;;3.10;;
2388;SDS011;1205;47.984;7.668;2023-07-20T06:53:12;6.00;;;3.00;;
2388;SDS011;1205;47.984;7.668;2023-07-20T06:55:38;4.17;;;3.10;;
2388;SDS011;1205;47.984;7.668;2023-07-20T06:58:04;4.43;;;3.60;;
2388;SDS011;1205;47.984;7.668;2023-07-20T07:00:30;6.03;;;3.07;;
2388;SDS011;1205;47.984;7.668;2023-07-20T07:02:55;3.67;;;3.33;;
2388;SDS011;1205;47.984;7.668;2023-07-20T07:05:21;3.27;;;3.03;;
2388;SDS011;1205;47.984;7.668;2023-07-20T07:07:47;3.23;;;2.93;;
2388;SDS011;1205;47.984;7.668;2023-07-20T07:10:13;2.90;;;2.70;;
2388;SDS011;1205;47.984;7.668;2023-07-20T07:12:38;3.67;;;2.80;;
2388;SDS011;1205;47.984;7.668;2023-07-20T07:15:04;8.27;;;3.23;;
2388;SDS011;1205;47.984;7.668;2023-07-20T07:17:31;6.77;;;3.33;;
2388;SDS011;1205;47.984;7.668;2023-07-20T07:19:57;7.80;;;2.80;;
2388;SDS011;1205;47.984;7.668;2023-07-20T07:22:23;4.00;;;2.97;;
2388;SDS011;1205;47.984;7.668;2023-07-20T07:24:50;7.10;;;3.10;;
2388;SDS011;1205;47.984;7.668;2023-07-20T07:27:15;8.00;;;2.90;;
2388;SDS011;1205;47.984;7.668;2023-07-20T07:29:41;6.27;;;3.77;;
2388;SDS011;1205;47.984;7.668;2023-07-20T07:32:09;3.10;;;2.70;;
2388;SDS011;1205;47.984;7.668;2023-07-20T07:34:36;5.90;;;3.40;;
2388;SDS011;1205;47.984;7.668;2023-07-20T07:37:02;5.53;;;3.17;;
2388;SDS011;1205;47.984;7.668;2023-07-20T07:39:28;3.40;;;3.10;;
2388;SDS011;1205;47.984;7.668;2023-07-20T07:41:55;4.13;;;2.90;;
2388;SDS011;1205;47.984;7.668;2023-07-20T07:44:20;4.20;;;3.43;;
2388;SDS011;1205;47.984;7.668;2023-07-20T07:46:46;12.30;;;2.97;;
2388;SDS011;1205;47.984;7.668;2023-07-20T07:49:12;2.97;;;2.77;;
2388;SDS011;1205;47.984;7.668;2023-07-20T07:51:37;3.40;;;3.03;;
2388;SDS011;1205;47.984;7.668;2023-07-20T07:54:03;5.23;;;3.60;;
2388;SDS011;1205;47.984;7.668;2023-07-20T07:56:29;5.43;;;2.70;;
2388;SDS011;1205;47.984;7.668;2023-07-20T07:58:55;3.23;;;2.93;;
2388;SDS011;1205;47.984;7.668;2023-07-20T08:01:20;4.33;;;3.47;;
2388;SDS011;1205;47.984;7.668;2023-07-20T08:03:47;6.00;;;3.33;;
2388;SDS011;1205;47.984;7.668;2023-07-20T08:06:15;4.50;;;3.10;;
2388;SDS011;1205;47.984;7.668;2023-07-20T08:08:41;8.83;;;3.00;;
2388;SDS011;1205;47.984;7.668;2023-07-20T08:11:07;11.10;;;3.80;;
2388;SDS011;1205;47.984;7.668;2023-07-20T08:13:33;3.23;;;2.93;;
2388;SDS011;1205;47.984;7.668;2023-07-20T08:15:59;3.03;;;2.80;;
2388;SDS011;1205;47.984;7.668;2023-07-20T08:18:24;6.37;;;3.40;;
2388;SDS011;1205;47.984;7.668;2023-07-20T08:20:50;3.03;;;2.83;;
2388;SDS011;1205;47.984;7.668;2023-07-20T08:23:16;5.43;;;3.03;;
2388;SDS011;1205;47.984;7.668;2023-07-20T08:25:41;3.90;;;3.07;;
2388;SDS011;1205;47.984;7.668;2023-07-20T08:28:10;4.73;;;2.60;;
2388;SDS011;1205;47.984;7.668;2023-07-20T08:30:43;4.40;;;3.20;;
2388;SDS011;1205;47.984;7.668;2023-07-20T08:33:10;4.67;;;3.10;;
2388;SDS011;1205;47.984;7.668;2023-07-20T08:35:39;3.30;;;3.07;;
2388;SDS011;1205;47.984;7.668;2023-07-20T08:38:04;3.33;;;3.03;;
2388;SDS011;1205;47.984;7.668;2023-07-20T08:40:31;3.57;;;3.27;;
2388;SDS011;1205;47.984;7.668;2023-07-20T08:42:58;3.67;;;3.37;;
2388;SDS011;1205;47.984;7.668;2023-07-20T08:45:25;4.73;;;3.40;;
2388;SDS011;1205;47.984;7.668;2023-07-20T08:47:54;7.20;;;3.83;;
2388;SDS011;1205;47.984;7.668;2023-07-20T08:50:21;2.97;;;2.87;;
2388;SDS011;1205;47.984;7.668;2023-07-20T08:52:47;13.40;;;3.30;;
2388;SDS011;1205;47.984;7.668;2023-07-20T08:55:15;2.70;;;2.57;;
2388;SDS011;1205;47.984;7.668;2023-07-20T08:57:40;5.10;;;2.70;;
2388;SDS011;1205;47.984;7.668;2023-07-20T09:00:09;10.47;;;2.73;;
2388;SDS011;1205;47.984;7.668;2023-07-20T09:02:38;3.47;;;2.80;;
2388;SDS011;1205;47.984;7.668;2023-07-20T09:05:07;3.90;;;2.40;;
2388;SDS011;1205;47.984;7.668;2023-07-20T09:07:35;2.30;;;2.10;;
2388;SDS011;1205;47.984;7.668;2023-07-20T09:10:01;4.57;;;2.30;;
2388;SDS011;1205;47.984;7.668;2023-07-20T09:12:31;2.93;;;2.47;;
2388;SDS011;1205;47.984;7.668;2023-07-20T09:15:06;2.63;;;2.43;;
2388;SDS011;1205;47.984;7.668;2023-07-20T09:17:33;3.03;;;2.70;;
2388;SDS011;1205;47.984;7.668;2023-07-20T09:20:01;2.57;;;2.37;;
2388;SDS011;1205;47.984;7.668;2023-07-20T09:22:35;9.37;;;3.27;;
2388;SDS011;1205;47.984;7.668;2023-07-20T09:25:06;4.17;;;2.70;;
2388;SDS011;1205;47.984;7.668;2023-07-20T09:27:36;2.93;;;2.57;;
2388;SDS011;1205;47.984;7.668;2023-07-20T09:30:09;2.90;;;2.40;;
2388;SDS011;1205;47.984;7.668;2023-07-20T09:32:39;2.43;;;2.23;;
2388;SDS011;1205;47.984;7.668;2023-07-20T09:35:15;3.27;;;2.37;;
2388;SDS011;1205;47.984;7.668;2023-07-20T09:37:53;3.43;;;2.63;;
2388;SDS011;1205;47.984;7.668;2023-07-20T09:40:26;3.67;;;2.40;;
2388;SDS011;1205;47.984;7.668;2023-07-20T09:42:53;2.50;;;2.40;;
2388;SDS011;1205;47.984;7.668;2023-07-20T09:45:27;3.00;;;2.70;;
2388;SDS011;1205;47.984;7.668;2023-07-20T09:48:14;11.93;;;2.60;;
2388;SDS011;1205;47.984;7.668;2023-07-20T09:50:40;3.67;;;2.90;;
2388;SDS011;1205;47.984;7.668;2023-07-20T09:53:19;5.33;;;2.90;;
2388;SDS011;1205;47.984;7.668;2023-07-20T09:55:45;3.30;;;2.90;;
2388;SDS011;1205;47.984;7.668;2023-07-20T09:58:15;5.03;;;2.70;;
2388;SDS011;1205;47.984;7.668;2023-07-20T10:00:42;3.23;;;2.90;;
2388;SDS011;1205;47.984;7.668;2023-07-20T10:03:11;2.87;;;2.67;;
2388;SDS011;1205;47.984;7.668;2023-07-20T10:05:43;4.67;;;2.60;;
2388;SDS011;1205;47.984;7.668;2023-07-20T10:08:11;2.60;;;2.40;;
2388;SDS011;1205;47.984;7.668;2023-07-20T10:10:38;6.13;;;2.40;;
2388;SDS011;1205;47.984;7.668;2023-07-20T10:13:06;3.23;;;2.30;;
2388;SDS011;1205;47.984;7.668;2023-07-20T10:15:43;2.63;;;2.43;;
2388;SDS011;1205;47.984;7.668;2023-07-20T10:18:14;4.77;;;2.80;;
2388;SDS011;1205;47.984;7.668;2023-07-20T10:20:46;2.80;;;2.33;;
2388;SDS011;1205;47.984;7.668;2023-07-20T10:23:13;5.90;;;2.73;;
2388;SDS011;1205;47.984;7.668;2023-07-20T10:25:39;3.43;;;2.50;;
2388;SDS011;1205;47.984;7.668;2023-07-20T10:28:07;2.30;;;2.20;;
2388;SDS011;1205;47.984;7.668;2023-07-20T10:30:34;5.53;;;2.43;;
2388;SDS011;1205;47.984;7.668;2023-07-20T10:33:01;3.40;;;2.83;;
2388;SDS011;1205;47.984;7.668;2023-07-20T10:35:31;5.20;;;3.10;;
2388;SDS011;1205;47.984;7.668;2023-07-20T10:38:15;5.50;;;3.13;;
2388;SDS011;1205;47.984;7.668;2023-07-20T10:40:41;5.13;;;3.10;;
2388;SDS011;1205;47.984;7.668;2023-07-20T10:43:07;4.37;;;2.20;;
2388;SDS011;1205;47.984;7.668;2023-07-20T10:45:34;8.53;;;2.40;;
2388;SDS011;1205;47.984;7.668;2023-07-20T10:48:22;4.47;;;2.33;;
2388;SDS011;1205;47.984;7.668;2023-07-20T10:53:39;3.03;;;2.63;;
2388;SDS011;1205;47.984;7.668;2023-07-20T10:56:05;4.60;;;3.13;;
2388;SDS011;1205;47.984;7.668;2023-07-20T10:58:44;3.47;;;2.43;;
2388;SDS011;1205;47.984;7.668;2023-07-20T11:01:13;3.43;;;2.20;;
2388;SDS011;1205;47.984;7.668;2023-07-20T11:03:40;5.50;;;2.13;;
2388;SDS011;1205;47.984;7.668;2023-07-20T11:08:56;5.13;;;2.30;;
2388;SDS011;1205;47.984;7.668;2023-07-20T11:11:29;3.10;;;2.70;;
2388;SDS011;1205;47.984;7.668;2023-07-20T11:13:59;4.10;;;2.30;;
2388;SDS011;1205;47.984;7.668;2023-07-20T11:19:17;2.67;;;2.47;;
2388;SDS011;1205;47.984;7.668;2023-07-20T11:21:43;8.33;;;2.20;;
2388;SDS011;1205;47.984;7.668;2023-07-20T11:24:10;9.97;;;2.30;;
2388;SDS011;1205;47.984;7.668;2023-07-20T11:26:53;3.20;;;2.13;;
2388;SDS011;1205;47.984;7.668;2023-07-20T11:29:20;13.43;;;3.80;;
2388;SDS011;1205;47.984;7.668;2023-07-20T11:31:47;3.43;;;1.70;;
2388;SDS011;1205;47.984;7.668;2023-07-20T11:34:14;3.90;;;2.57;;
2388;SDS011;1205;47.984;7.668;2023-07-20T11:36:46;3.07;;;2.00;;
2388;SDS011;1205;47.984;7.668;2023-07-20T11:39:13;1.90;;;1.80;;
2388;SDS011;1205;47.984;7.668;2023-07-20T11:41:43;5.47;;;1.97;;
2388;SDS011;1205;47.984;7.668;2023-07-20T11:44:11;2.67;;;2.00;;
2388;SDS011;1205;47.984;7.668;2023-07-20T11:46:38;2.70;;;1.87;;
2388;SDS011;1205;47.984;7.668;2023-07-20T11:49:04;8.80;;;1.80;;
2388;SDS011;1205;47.984;7.668;2023-07-20T11:51:32;3.63;;;2.20;;
2388;SDS011;1205;47.984;7.668;2023-07-20T11:53:58;2.60;;;1.93;;
2388;SDS011;1205;47.984;7.668;2023-07-20T11:56:24;3.27;;;2.00;;
2388;SDS011;1205;47.984;7.668;2023-07-20T11:58:54;4.50;;;2.17;;
2388;SDS011;1205;47.984;7.668;2023-07-20T12:01:20;3.57;;;2.50;;
2388;SDS011;1205;47.984;7.668;2023-07-20T12:03:47;2.47;;;2.27;;
2388;SDS011;1205;47.984;7.668;2023-07-20T12:06:13;3.50;;;2.10;;
2388;SDS011;1205;47.984;7.668;2023-07-20T12:08:41;2.10;;;2.00;;
2388;SDS011;1205;47.984;7.668;2023-07-20T12:11:08;4.20;;;2.50;;
2388;SDS011;1205;47.984;7.668;2023-07-20T12:13:43;4.30;;;1.90;;
2388;SDS011;1205;47.984;7.668;2023-07-20T12:16:13;2.13;;;1.93;;
2388;SDS011;1205;47.984;7.668;2023-07-20T12:18:40;2.13;;;2.00;;
2388;SDS011;1205;47.984;7.668;2023-07-20T12:21:06;2.30;;;2.10;;
2388;SDS011;1205;47.984;7.668;2023-07-20T12:23:37;4.50;;;2.40;;
2388;SDS011;1205;47.984;7.668;2023-07-20T12:26:07;2.30;;;2.20;;
2388;SDS011;1205;47.984;7.668;2023-07-20T12:28:36;8.70;;;2.00;;
2388;SDS011;1205;47.984;7.668;2023-07-20T12:31:05;6.20;;;2.17;;
2388;SDS011;1205;47.984;7.668;2023-07-20T12:33:31;3.97;;;2.50;;
2388;SDS011;1205;47.984;7.668;2023-07-20T12:35:57;2.17;;;2.07;;
2388;SDS011;1205;47.984;7.668;2023-07-20T12:38:24;3.07;;;2.10;;
2388;SDS011;1205;47.984;7.668;2023-07-20T12:40:50;4.33;;;2.30;;
2388;SDS011;1205;47.984;7.668;2023-07-20T12:43:16;3.73;;;2.30;;
2388;SDS011;1205;47.984;7.668;2023-07-20T12:45:42;5.40;;;2.17;;
2388;SDS011;1205;47.984;7.668;2023-07-20T12:48:08;9.07;;;2.10;;
2388;SDS011;1205;47.984;7.668;2023-07-20T12:50:34;8.27;;;2.20;;
2388;SDS011;1205;47.984;7.668;2023-07-20T12:52:59;2.13;;;1.93;;
2388;SDS011;1205;47.984;7.668;2023-07-20T12:55:25;12.60;;;2.90;;
2388;SDS011;1205;47.984;7.668;2023-07-20T12:57:50;2.27;;;1.90;;
2388;SDS011;1205;47.984;7.668;2023-07-20T13:00:16;2.40;;;2.30;;
2388;SDS011;1205;47.984;7.668;2023-07-20T13:02:42;1.90;;;1.80;;
2388;SDS011;1205;47.984;7.668;2023-07-20T13:05:08;2.40;;;2.20;;
2388;SDS011;1205;47.984;7.668;2023-07-20T13:07:35;3.00;;;1.90;;
2388;SDS011;1205;47.984;7.668;2023-07-20T13:10:02;2.20;;;2.10;;
2388;SDS011;1205;47.984;7.668;2023-07-20T13:12:30;2.50;;;2.30;;
2388;SDS011;1205;47.984;7.668;2023-07-20T13:14:56;3.20;;;2.60;;
2388;SDS011;1205;47.984;7.668;2023-07-20T13:17:25;2.77;;;2.53;;
2388;SDS011;1205;47.984;7.668;2023-07-20T13:19:51;1.80;;;1.70;;
2388;SDS011;1205;47.984;7.668;2023-07-20T13:22:17;4.70;;;3.07;;
2388;SDS011;1205;47.984;7.668;2023-07-20T13:24:44;2.00;;;1.90;;
2388;SDS011;1205;47.984;7.668;2023-07-20T13:27:13;5.10;;;2.17;;
2388;SDS011;1205;47.984;7.668;2023-07-20T13:29:39;3.33;;;2.40;;
2388;SDS011;1205;47.984;7.668;2023-07-20T13:32:05;2.63;;;2.43;;
2388;SDS011;1205;47.984;7.668;2023-07-20T13:34:32;2.60;;;2.40;;
2388;SDS011;1205;47.984;7.668;2023-07-20T13:36:57;2.50;;;2.30;;
2388;SDS011;1205;47.984;7.668;2023-07-20T13:39:23;3.23;;;2.03;;
2388;SDS011;1205;47.984;7.668;2023-07-20T13:41:51;2.50;;;2.30;;
2388;SDS011;1205;47.984;7.668;2023-07-20T13:44:17;1.63;;;1.53;;
2388;SDS011;1205;47.984;7.668;2023-07-20T13:46:43;3.57;;;2.00;;
2388;SDS011;1205;47.984;7.668;2023-07-20T13:49:08;3.50;;;2.00;;
2388;SDS011;1205;47.984;7.668;2023-07-20T13:51:34;2.63;;;1.80;;
2388;SDS011;1205;47.984;7.668;2023-07-20T13:53:59;4.97;;;2.17;;
2388;SDS011;1205;47.984;7.668;2023-07-20T13:56:25;3.40;;;2.50;;
2388;SDS011;1205;47.984;7.668;2023-07-20T13:58:52;2.83;;;2.30;;
2388;SDS011;1205;47.984;7.668;2023-07-20T14:01:17;2.63;;;2.40;;
2388;SDS011;1205;47.984;7.668;2023-07-20T14:03:43;2.23;;;2.13;;
2388;SDS011;1205;47.984;7.668;2023-07-20T14:06:09;3.07;;;2.83;;
2388;SDS011;1205;47.984;7.668;2023-07-20T14:08:37;2.17;;;2.07;;
2388;SDS011;1205;47.984;7.668;2023-07-20T14:11:03;2.70;;;1.77;;
2388;SDS011;1205;47.984;7.668;2023-07-20T14:13:28;9.10;;;2.40;;
2388;SDS011;1205;47.984;7.668;2023-07-20T14:15:54;2.50;;;2.30;;
2388;SDS011;1205;47.984;7.668;2023-07-20T14:18:20;3.50;;;2.57;;
2388;SDS011;1205;47.984;7.668;2023-07-20T14:20:45;2.03;;;1.83;;
2388;SDS011;1205;47.984;7.668;2023-07-20T14:23:12;4.77;;;2.27;;
2388;SDS011;1205;47.984;7.668;2023-07-20T14:25:37;3.50;;;2.53;;
2388;SDS011;1205;47.984;7.668;2023-07-20T14:28:03;3.17;;;2.33;;
2388;SDS011;1205;47.984;7.668;2023-07-20T14:30:28;2.80;;;2.20;;
2388;SDS011;1205;47.984;7.668;2023-07-20T14:32:54;5.60;;;2.40;;
2388;SDS011;1205;47.984;7.668;2023-07-20T14:35:20;2.93;;;2.20;;
2388;SDS011;1205;47.984;7.668;2023-07-20T14:37:45;2.60;;;2.27;;
2388;SDS011;1205;47.984;7.668;2023-07-20T14:40:12;2.70;;;2.50;;
2388;SDS011;1205;47.984;7.668;2023-07-20T14:42:38;2.67;;;2.47;;
2388;SDS011;1205;47.984;7.668;2023-07-20T14:45:04;2.20;;;2.07;;
2388;SDS011;1205;47.984;7.668;2023-07-20T14:47:30;1.90;;;1.80;;
2388;SDS011;1205;47.984;7.668;2023-07-20T14:50:00;2.47;;;2.27;;
2388;SDS011;1205;47.984;7.668;2023-07-20T14:52:28;4.93;;;2.03;;
2388;SDS011;1205;47.984;7.668;2023-07-20T14:54:54;2.63;;;2.30;;
2388;SDS011;1205;47.984;7.668;2023-07-20T14:57:20;7.10;;;2.43;;
2388;SDS011;1205;47.984;7.668;2023-07-20T14:59:48;2.10;;;1.90;;
2388;SDS011;1205;47.984;7.668;2023-07-20T15:02:14;4.07;;;2.00;;
2388;SDS011;1205;47.984;7.668;2023-07-20T15:04:46;2.93;;;2.10;;
2388;SDS011;1205;47.984;7.668;2023-07-20T15:07:12;4.40;;;2.03;;
2388;SDS011;1205;47.984;7.668;2023-07-20T15:09:38;2.37;;;2.17;;
2388;SDS011;1205;47.984;7.668;2023-07-20T15:12:04;2.13;;;2.00;;
2388;SDS011;1205;47.984;7.668;2023-07-20T15:14:30;2.30;;;2.20;;
2388;SDS011;1205;47.984;7.668;2023-07-20T15:16:56;2.87;;;2.20;;
2388;SDS011;1205;47.984;7.668;2023-07-20T15:19:21;3.30;;;1.97;;
2388;SDS011;1205;47.984;7.668;2023-07-20T15:21:47;2.23;;;2.03;;
2388;SDS011;1205;47.984;7.668;2023-07-20T15:24:12;2.50;;;2.30;;
2388;SDS011;1205;47.984;7.668;2023-07-20T15:26:38;11.17;;;3.70;;